sensor_id;sensor_type;location;lat;lon;timestamp;pressure;altitude;pressure_sealevel;temperature;humidity
17635;BME280;8936;49.010;12.120;2023-04-26T00:00:27;97787.44;;;13.51;83.89
17635;BME280;8936;49.010;12.120;2023-04-26T00:02:54;97787.44;;;13.51;83.89
17635;BME280;8936;49.010;12.120;2023-04-26T00:05:20;97788.06;;;13.43;83.79
17635;BME280;8936;49.010;12.120;2023-04-26T00:07:48;97786.97;;;13.44;83.92
17635;BME280;8936;49.010;12.120;2023-04-26T00:10:15;97789.16;;;13.42;84.32
17635;BME280;8936;49.010;12.120;2023-04-26T00:12:41;97795.31;;;13.42;84.32
17635;BME280;8936;49.010;12.120;2023-04-26T00:15:08;97793.13;;;13.44;84.04
17635;BME280;8936;49.010;12.120;2023-04-26T00:17:34;97792.38;;;13.39;84.64
17635;BME280;8936;49.010;12.120;2023-04-26T00:20:01;97787.25;;;13.42;84.98
17635;BME280;8936;49.010;12.120;2023-04-26T00:22:28;97798.59;;;13.34;85.05
17635;BME280;8936;49.010;12.120;2023-04-26T00:24:56;97790.22;;;13.41;85.10
17635;BME280;8936;49.010;12.120;2023-04-26T00:27:25;97791.84;;;13.37;84.98
17635;BME280;8936;49.010;12.120;2023-04-26T00:29:52;97798.34;;;13.31;85.80
17635;BME280;8936;49.010;12.120;2023-04-26T00:32:18;97796.22;;;13.33;86.25
17635;BME280;8936;49.010;12.120;2023-04-26T00:34:44;97798.00;;;13.14;87.88
17635;BME280;8936;49.010;12.120;2023-04-26T00:37:11;97789.31;;;13.22;87.79
17635;BME280;8936;49.010;12.120;2023-04-26T00:39:38;97793.09;;;13.21;87.39
17635;BME280;8936;49.010;12.120;2023-04-26T00:42:06;97789.66;;;13.15;87.84
17635;BME280;8936;49.010;12.120;2023-04-26T00:44:32;97789.19;;;13.08;88.56
17635;BME280;8936;49.010;12.120;2023-04-26T00:46:58;97792.63;;;13.14;88.77
17635;BME280;8936;49.010;12.120;2023-04-26T00:49:25;97788.63;;;13.11;88.54
17635;BME280;8936;49.010;12.120;2023-04-26T00:51:52;97786.75;;;13.12;88.64
17635;BME280;8936;49.010;12.120;2023-04-26T00:54:18;97785.94;;;13.06;88.68
17635;BME280;8936;49.010;12.120;2023-04-26T00:56:45;97785.41;;;13.09;89.01
17635;BME280;8936;49.010;12.120;2023-04-26T00:59:13;97789.19;;;13.08;89.02
17635;BME280;8936;49.010;12.120;2023-04-26T01:01:40;97793.47;;;13.04;89.07
17635;BME280;8936;49.010;12.120;2023-04-26T01:04:06;97792.97;;;13.02;89.46
17635;BME280;8936;49.010;12.120;2023-04-26T01:06:33;97792.22;;;12.96;89.61
17635;BME280;8936;49.010;12.120;2023-04-26T01:09:02;97796.72;;;13.01;89.83
17635;BME280;8936;49.010;12.120;2023-04-26T01:11:32;97797.84;;;12.95;89.48
17635;BME280;8936;49.010;12.120;2023-04-26T01:13:58;97802.47;;;12.89;90.23
17635;BME280;8936;49.010;12.120;2023-04-26T01:16:26;97807.50;;;12.96;89.79
17635;BME280;8936;49.010;12.120;2023-04-26T01:18:53;97801.59;;;12.94;89.66
17635;BME280;8936;49.010;12.120;2023-04-26T01:21:19;97805.63;;;12.96;89.82
17635;BME280;8936;49.010;12.120;2023-04-26T01:23:48;97809.31;;;13.00;89.77
17635;BME280;8936;49.010;12.120;2023-04-26T01:26:14;97798.59;;;13.00;90.04
17635;BME280;8936;49.010;12.120;2023-04-26T01:28:41;97802.41;;;12.94;89.71
17635;BME280;8936;49.010;12.120;2023-04-26T01:31:08;97799.97;;;12.98;89.95
17635;BME280;8936;49.010;12.120;2023-04-26T01:33:34;97793.31;;;12.90;89.72
17635;BME280;8936;49.010;12.120;2023-04-26T01:36:00;97801.84;;;12.97;90.39
17635;BME280;8936;49.010;12.120;2023-04-26T01:38:27;97802.78;;;12.83;90.11
17635;BME280;8936;49.010;12.120;2023-04-26T01:40:54;97806.78;;;12.85;90.59
17635;BME280;8936;49.010;12.120;2023-04-26T01:43:21;97791.50;;;12.86;90.66
17635;BME280;8936;49.010;12.120;2023-04-26T01:45:47;97793.09;;;12.87;90.35
17635;BME280;8936;49.010;12.120;2023-04-26T01:48:14;97801.66;;;12.89;90.32
17635;BME280;8936;49.010;12.120;2023-04-26T01:50:40;97810.75;;;12.88;90.27
17635;BME280;8936;49.010;12.120;2023-04-26T01:53:07;97807.88;;;12.79;90.19
17635;BME280;8936;49.010;12.120;2023-04-26T01:55:33;97810.63;;;12.74;90.60
17635;BME280;8936;49.010;12.120;2023-04-26T01:58:01;97811.38;;;12.80;90.76
17635;BME280;8936;49.010;12.120;2023-04-26T02:00:27;97813.25;;;12.79;90.84
17635;BME280;8936;49.010;12.120;2023-04-26T02:02:54;97815.97;;;12.74;90.68
17635;BME280;8936;49.010;12.120;2023-04-26T02:05:21;97810.63;;;12.74;91.07
17635;BME280;8936;49.010;12.120;2023-04-26T02:07:47;97811.97;;;12.72;90.99
17635;BME280;8936;49.010;12.120;2023-04-26T02:10:14;97818.19;;;12.62;91.26
17635;BME280;8936;49.010;12.120;2023-04-26T02:12:40;97811.78;;;12.58;91.62
17635;BME280;8936;49.010;12.120;2023-04-26T02:15:08;97812.84;;;12.57;92.11
17635;BME280;8936;49.010;12.120;2023-04-26T02:17:34;97823.31;;;12.59;92.23
17635;BME280;8936;49.010;12.120;2023-04-26T02:20:01;97825.69;;;12.60;91.79
17635;BME280;8936;49.010;12.120;2023-04-26T02:22:28;97820.34;;;12.60;92.29
17635;BME280;8936;49.010;12.120;2023-04-26T02:24:55;97820.09;;;12.57;91.98
17635;BME280;8936;49.010;12.120;2023-04-26T02:27:21;97819.31;;;12.56;91.86
17635;BME280;8936;49.010;12.120;2023-04-26T02:29:48;97819.31;;;12.51;92.13
17635;BME280;8936;49.010;12.120;2023-04-26T02:32:16;97808.91;;;12.50;92.16
17635;BME280;8936;49.010;12.120;2023-04-26T02:34:43;97816.66;;;12.51;92.06
17635;BME280;8936;49.010;12.120;2023-04-26T02:37:09;97823.13;;;12.45;91.98
17635;BME280;8936;49.010;12.120;2023-04-26T02:39:35;97817.25;;;12.38;92.62
17635;BME280;8936;49.010;12.120;2023-04-26T02:42:02;97816.78;;;12.31;92.75
17635;BME280;8936;49.010;12.120;2023-04-26T02:44:28;97815.16;;;12.30;92.81
17635;BME280;8936;49.010;12.120;2023-04-26T02:46:55;97816.22;;;12.34;92.64
17635;BME280;8936;49.010;12.120;2023-04-26T02:49:23;97818.88;;;12.39;92.46
17635;BME280;8936;49.010;12.120;2023-04-26T02:51:50;97818.34;;;12.37;91.89
17635;BME280;8936;49.010;12.120;2023-04-26T02:54:16;97813.00;;;12.32;91.81
17635;BME280;8936;49.010;12.120;2023-04-26T02:56:42;97830.69;;;12.33;91.84
17635;BME280;8936;49.010;12.120;2023-04-26T02:59:09;97827.50;;;12.31;91.53
17635;BME280;8936;49.010;12.120;2023-04-26T03:01:35;97815.69;;;12.32;91.63
17635;BME280;8936;49.010;12.120;2023-04-26T03:04:02;97823.19;;;12.30;91.63
17635;BME280;8936;49.010;12.120;2023-04-26T03:06:29;97820.53;;;12.30;91.24
17635;BME280;8936;49.010;12.120;2023-04-26T03:08:56;97817.31;;;12.28;91.18
17635;BME280;8936;49.010;12.120;2023-04-26T03:11:24;97814.66;;;12.23;90.92
17635;BME280;8936;49.010;12.120;2023-04-26T03:13:51;97820.56;;;12.20;90.88
17635;BME280;8936;49.010;12.120;2023-04-26T03:16:17;97821.91;;;12.22;91.26
17635;BME280;8936;49.010;12.120;2023-04-26T03:18:44;97828.59;;;12.25;91.11
17635;BME280;8936;49.010;12.120;2023-04-26T03:21:10;97837.19;;;12.22;90.80
17635;BME280;8936;49.010;12.120;2023-04-26T03:23:38;97835.31;;;12.17;91.01
17635;BME280;8936;49.010;12.120;2023-04-26T03:26:04;97835.31;;;12.17;91.07
17635;BME280;8936;49.010;12.120;2023-04-26T03:28:31;97836.63;;;12.20;91.07
17635;BME280;8936;49.010;12.120;2023-04-26T03:30:57;97845.75;;;12.14;91.15
17635;BME280;8936;49.010;12.120;2023-04-26T03:33:25;97822.75;;;12.08;91.38
17635;BME280;8936;49.010;12.120;2023-04-26T03:35:52;97841.50;;;12.13;91.43
17635;BME280;8936;49.010;12.120;2023-04-26T03:38:18;97836.69;;;12.10;91.50
17635;BME280;8936;49.010;12.120;2023-04-26T03:40:46;97835.88;;;12.09;91.40
17635;BME280;8936;49.010;12.120;2023-04-26T03:43:12;97841.31;;;11.94;91.50
17635;BME280;8936;49.010;12.120;2023-04-26T03:45:39;97832.72;;;11.97;92.17
17635;BME280;8936;49.010;12.120;2023-04-26T03:48:05;97838.69;;;11.79;92.78
17635;BME280;8936;49.010;12.120;2023-04-26T03:50:31;97844.81;;;11.84;93.14
17635;BME280;8936;49.010;12.120;2023-04-26T03:52:58;97844.25;;;11.87;92.32
17635;BME280;8936;49.010;12.120;2023-04-26T03:55:24;97847.47;;;11.89;91.84
17635;BME280;8936;49.010;12.120;2023-04-26T03:57:52;97851.75;;;11.85;91.71
17635;BME280;8936;49.010;12.120;2023-04-26T04:00:19;97853.66;;;11.85;91.63
17635;BME280;8936;49.010;12.120;2023-04-26T04:02:45;97853.38;;;11.81;91.48
17635;BME280;8936;49.010;12.120;2023-04-26T04:05:11;97854.19;;;11.82;91.21
17635;BME280;8936;49.010;12.120;2023-04-26T04:07:38;97859.00;;;11.80;90.77
17635;BME280;8936;49.010;12.120;2023-04-26T04:10:04;97857.94;;;11.81;90.88
17635;BME280;8936;49.010;12.120;2023-04-26T04:12:31;97863.28;;;11.66;91.13
17635;BME280;8936;49.010;12.120;2023-04-26T04:14:59;97870.81;;;11.03;94.51
17635;BME280;8936;49.010;12.120;2023-04-26T04:17:25;97869.97;;;10.93;98.33
17635;BME280;8936;49.010;12.120;2023-04-26T04:19:52;97870.53;;;11.10;98.71
17635;BME280;8936;49.010;12.120;2023-04-26T04:22:18;97870.53;;;10.79;98.94
17635;BME280;8936;49.010;12.120;2023-04-26T04:24:44;97863.81;;;10.77;100.00
17635;BME280;8936;49.010;12.120;2023-04-26T04:27:11;97871.59;;;10.89;100.00
17635;BME280;8936;49.010;12.120;2023-04-26T04:29:40;97879.59;;;10.99;100.00
17635;BME280;8936;49.010;12.120;2023-04-26T04:32:08;97879.59;;;10.99;99.40
17635;BME280;8936;49.010;12.120;2023-04-26T04:34:35;97875.59;;;11.26;98.58
17635;BME280;8936;49.010;12.120;2023-04-26T04:37:02;97874.56;;;11.32;97.03
17635;BME280;8936;49.010;12.120;2023-04-26T04:39:29;97880.44;;;11.19;97.01
17635;BME280;8936;49.010;12.120;2023-04-26T04:41:55;97875.34;;;11.03;98.44
17635;BME280;8936;49.010;12.120;2023-04-26T04:44:22;97890.03;;;11.20;98.55
17635;BME280;8936;49.010;12.120;2023-04-26T04:46:50;97886.06;;;11.38;97.10
17635;BME280;8936;49.010;12.120;2023-04-26T04:49:18;97886.03;;;11.53;95.71
17635;BME280;8936;49.010;12.120;2023-04-26T04:51:45;97892.69;;;11.61;94.36
17635;BME280;8936;49.010;12.120;2023-04-26T04:54:11;97891.38;;;11.53;94.08
17635;BME280;8936;49.010;12.120;2023-04-26T04:56:38;97901.00;;;11.04;95.96
17635;BME280;8936;49.010;12.120;2023-04-26T04:59:05;97910.66;;;11.20;97.39
17635;BME280;8936;49.010;12.120;2023-04-26T05:01:31;97907.69;;;11.11;98.04
17635;BME280;8936;49.010;12.120;2023-04-26T05:03:58;97906.38;;;11.14;98.61
17635;BME280;8936;49.010;12.120;2023-04-26T05:06:26;97908.22;;;11.08;97.89
17635;BME280;8936;49.010;12.120;2023-04-26T05:08:55;97904.75;;;11.03;98.51
17635;BME280;8936;49.010;12.120;2023-04-26T05:11:21;97901.56;;;11.16;98.79
17635;BME280;8936;49.010;12.120;2023-04-26T05:13:47;97911.97;;;11.17;98.19
17635;BME280;8936;49.010;12.120;2023-04-26T05:16:14;97913.81;;;11.02;99.27
17635;BME280;8936;49.010;12.120;2023-04-26T05:18:40;97913.03;;;11.26;98.40
17635;BME280;8936;49.010;12.120;2023-04-26T05:21:07;97920.28;;;11.41;97.19
17635;BME280;8936;49.010;12.120;2023-04-26T05:23:34;97921.59;;;11.54;95.88
17635;BME280;8936;49.010;12.120;2023-04-26T05:26:02;97911.16;;;11.42;95.60
17635;BME280;8936;49.010;12.120;2023-04-26T05:28:29;97914.63;;;11.58;95.25
17635;BME280;8936;49.010;12.120;2023-04-26T05:30:55;97923.72;;;11.62;94.25
17635;BME280;8936;49.010;12.120;2023-04-26T05:33:22;97915.97;;;11.65;93.60
17635;BME280;8936;49.010;12.120;2023-04-26T05:35:48;97921.03;;;11.67;92.85
17635;BME280;8936;49.010;12.120;2023-04-26T05:38:14;97915.97;;;11.65;92.77
17635;BME280;8936;49.010;12.120;2023-04-26T05:40:42;97906.91;;;11.71;92.01
17635;BME280;8936;49.010;12.120;2023-04-26T05:43:09;97911.97;;;11.83;91.23
17635;BME280;8936;49.010;12.120;2023-04-26T05:45:36;97913.31;;;11.80;90.32
17635;BME280;8936;49.010;12.120;2023-04-26T05:48:02;97917.06;;;11.74;90.08
17635;BME280;8936;49.010;12.120;2023-04-26T05:50:29;97925.34;;;11.73;90.74
17635;BME280;8936;49.010;12.120;2023-04-26T05:52:55;97922.66;;;11.68;89.51
17635;BME280;8936;49.010;12.120;2023-04-26T05:55:22;97926.13;;;11.68;91.25
17635;BME280;8936;49.010;12.120;2023-04-26T05:57:49;97924.03;;;11.60;90.61
17635;BME280;8936;49.010;12.120;2023-04-26T06:00:16;97917.06;;;11.69;91.06
17635;BME280;8936;49.010;12.120;2023-04-26T06:02:44;97926.69;;;11.50;88.98
17635;BME280;8936;49.010;12.120;2023-04-26T06:05:11;97918.91;;;11.33;88.98
17635;BME280;8936;49.010;12.120;2023-04-26T06:07:37;97918.28;;;10.71;89.82
17635;BME280;8936;49.010;12.120;2023-04-26T06:10:04;97912.22;;;10.86;94.43
17635;BME280;8936;49.010;12.120;2023-04-26T06:12:31;97923.75;;;11.16;94.44
17635;BME280;8936;49.010;12.120;2023-04-26T06:14:58;97926.66;;;11.45;92.88
17635;BME280;8936;49.010;12.120;2023-04-26T06:17:25;97923.47;;;11.63;91.29
17635;BME280;8936;49.010;12.120;2023-04-26T06:19:51;97921.88;;;11.52;90.36
17635;BME280;8936;49.010;12.120;2023-04-26T06:22:18;97927.75;;;11.69;90.25
17635;BME280;8936;49.010;12.120;2023-04-26T06:24:44;97940.88;;;11.81;89.28
17635;BME280;8936;49.010;12.120;2023-04-26T06:27:10;97947.84;;;11.72;87.10
17635;BME280;8936;49.010;12.120;2023-04-26T06:29:37;97945.66;;;11.33;86.01
17635;BME280;8936;49.010;12.120;2023-04-26T06:32:05;97944.53;;;10.99;90.06
17635;BME280;8936;49.010;12.120;2023-04-26T06:34:31;97940.78;;;10.90;87.19
17635;BME280;8936;49.010;12.120;2023-04-26T06:36:57;97940.03;;;11.30;90.18
17635;BME280;8936;49.010;12.120;2023-04-26T06:39:24;97952.34;;;11.61;88.07
17635;BME280;8936;49.010;12.120;2023-04-26T06:41:50;97941.94;;;11.85;85.67
17635;BME280;8936;49.010;12.120;2023-04-26T06:44:17;97966.00;;;11.70;77.21
17635;BME280;8936;49.010;12.120;2023-04-26T06:46:43;97957.66;;;11.01;77.84
17635;BME280;8936;49.010;12.120;2023-04-26T06:49:11;97961.84;;;10.71;77.47
17635;BME280;8936;49.010;12.120;2023-04-26T06:51:37;97961.94;;;11.07;83.11
17635;BME280;8936;49.010;12.120;2023-04-26T06:54:03;97960.09;;;11.43;84.20
17635;BME280;8936;49.010;12.120;2023-04-26T06:56:30;97964.09;;;11.45;79.55
17635;BME280;8936;49.010;12.120;2023-04-26T06:58:57;97958.22;;;11.58;82.40
17635;BME280;8936;49.010;12.120;2023-04-26T07:01:24;97959.59;;;11.86;80.62
17635;BME280;8936;49.010;12.120;2023-04-26T07:03:53;97956.09;;;11.40;74.51
17635;BME280;8936;49.010;12.120;2023-04-26T07:06:21;97961.94;;;11.07;75.03
17635;BME280;8936;49.010;12.120;2023-04-26T07:08:47;97966.00;;;11.50;79.43
17635;BME280;8936;49.010;12.120;2023-04-26T07:11:14;97966.00;;;11.60;79.20
17635;BME280;8936;49.010;12.120;2023-04-26T07:13:40;97960.66;;;11.65;77.59
17635;BME280;8936;49.010;12.120;2023-04-26T07:16:06;97968.69;;;11.75;75.86
17635;BME280;8936;49.010;12.120;2023-04-26T07:18:33;97971.91;;;11.87;76.00
17635;BME280;8936;49.010;12.120;2023-04-26T07:20:59;97968.38;;;11.16;69.95
17635;BME280;8936;49.010;12.120;2023-04-26T07:23:27;97964.63;;;11.12;74.00
17635;BME280;8936;49.010;12.120;2023-04-26T07:25:54;97963.59;;;11.38;78.93
17635;BME280;8936;49.010;12.120;2023-04-26T07:28:20;97968.13;;;11.58;75.23
17635;BME280;8936;49.010;12.120;2023-04-26T07:30:47;97964.66;;;11.62;76.64
17635;BME280;8936;49.010;12.120;2023-04-26T07:33:13;97970.53;;;11.49;74.21
17635;BME280;8936;49.010;12.120;2023-04-26T07:35:41;97970.50;;;11.24;74.53
17635;BME280;8936;49.010;12.120;2023-04-26T07:38:07;97963.06;;;11.76;77.86
17635;BME280;8936;49.010;12.120;2023-04-26T07:40:35;97967.31;;;11.98;76.18
17635;BME280;8936;49.010;12.120;2023-04-26T07:43:02;97963.03;;;12.12;73.89
17635;BME280;8936;49.010;12.120;2023-04-26T07:45:28;97969.69;;;12.19;74.06
17635;BME280;8936;49.010;12.120;2023-04-26T07:47:55;97967.84;;;12.15;73.49
17635;BME280;8936;49.010;12.120;2023-04-26T07:50:21;97960.59;;;12.10;72.50
17635;BME280;8936;49.010;12.120;2023-04-26T07:52:47;97958.44;;;12.17;71.89
17635;BME280;8936;49.010;12.120;2023-04-26T07:55:14;97963.34;;;11.75;68.19
17635;BME280;8936;49.010;12.120;2023-04-26T07:57:41;97960.38;;;11.36;71.09
17635;BME280;8936;49.010;12.120;2023-04-26T08:00:08;97955.06;;;11.81;75.10
17635;BME280;8936;49.010;12.120;2023-04-26T08:02:35;97944.06;;;11.93;72.01
17635;BME280;8936;49.010;12.120;2023-04-26T08:05:01;97951.75;;;12.20;71.40
17635;BME280;8936;49.010;12.120;2023-04-26T08:07:28;97957.16;;;12.05;68.47
17635;BME280;8936;49.010;12.120;2023-04-26T08:09:55;97949.63;;;12.22;70.06
17635;BME280;8936;49.010;12.120;2023-04-26T08:12:21;97948.56;;;12.13;68.41
17635;BME280;8936;49.010;12.120;2023-04-26T08:14:49;97954.91;;;12.42;68.54
17635;BME280;8936;49.010;12.120;2023-04-26T08:17:15;97944.63;;;12.64;67.88
17635;BME280;8936;49.010;12.120;2023-04-26T08:19:41;97950.97;;;12.78;66.74
17635;BME280;8936;49.010;12.120;2023-04-26T08:22:08;97948.31;;;12.83;66.57
17635;BME280;8936;49.010;12.120;2023-04-26T08:24:34;97943.28;;;12.67;66.06
17635;BME280;8936;49.010;12.120;2023-04-26T08:27:00;97955.19;;;12.94;65.21
17635;BME280;8936;49.010;12.120;2023-04-26T08:29:27;97949.22;;;13.08;62.98
17635;BME280;8936;49.010;12.120;2023-04-26T08:31:55;97948.19;;;13.09;62.64
17635;BME280;8936;49.010;12.120;2023-04-26T08:34:21;97942.78;;;13.14;60.17
17635;BME280;8936;49.010;12.120;2023-04-26T08:36:48;97945.94;;;12.72;59.38
17635;BME280;8936;49.010;12.120;2023-04-26T08:39:15;97951.78;;;12.79;59.55
17635;BME280;8936;49.010;12.120;2023-04-26T08:41:42;97951.44;;;12.90;60.19
17635;BME280;8936;49.010;12.120;2023-04-26T08:44:08;97942.72;;;12.75;60.00
17635;BME280;8936;49.010;12.120;2023-04-26T08:46:36;97951.94;;;13.03;61.71
17635;BME280;8936;49.010;12.120;2023-04-26T08:49:10;97944.63;;;12.64;57.83
17635;BME280;8936;49.010;12.120;2023-04-26T08:51:38;97953.69;;;12.73;59.64
17635;BME280;8936;49.010;12.120;2023-04-26T08:54:05;97944.84;;;13.22;58.72
17635;BME280;8936;49.010;12.120;2023-04-26T08:56:32;97945.69;;;12.68;56.48
17635;BME280;8936;49.010;12.120;2023-04-26T08:59:00;97942.63;;;13.34;58.34
17635;BME280;8936;49.010;12.120;2023-04-26T09:01:27;97949.34;;;13.70;58.36
17635;BME280;8936;49.010;12.120;2023-04-26T09:03:54;97954.47;;;13.95;56.35
17635;BME280;8936;49.010;12.120;2023-04-26T09:06:23;97944.28;;;13.64;51.33
17635;BME280;8936;49.010;12.120;2023-04-26T09:08:52;97939.88;;;13.05;53.92
17635;BME280;8936;49.010;12.120;2023-04-26T09:11:20;97946.97;;;13.30;55.58
17635;BME280;8936;49.010;12.120;2023-04-26T09:13:46;97945.91;;;13.65;55.50
17635;BME280;8936;49.010;12.120;2023-04-26T09:16:12;97952.81;;;13.71;54.62
17635;BME280;8936;49.010;12.120;2023-04-26T09:18:46;97942.75;;;13.86;54.13
17635;BME280;8936;49.010;12.120;2023-04-26T09:21:12;97939.03;;;13.77;49.91
17635;BME280;8936;49.010;12.120;2023-04-26T09:23:56;97940.06;;;13.86;53.03
17635;BME280;8936;49.010;12.120;2023-04-26T09:26:23;97942.19;;;13.89;51.73
17635;BME280;8936;49.010;12.120;2023-04-26T09:28:50;97938.53;;;13.75;48.93
17635;BME280;8936;49.010;12.120;2023-04-26T09:31:36;97942.53;;;13.78;53.29
17635;BME280;8936;49.010;12.120;2023-04-26T09:34:03;97936.19;;;13.97;52.24
17635;BME280;8936;49.010;12.120;2023-04-26T09:36:29;97927.13;;;13.60;48.95
17635;BME280;8936;49.010;12.120;2023-04-26T09:38:57;97933.56;;;13.92;52.17
17635;BME280;8936;49.010;12.120;2023-04-26T09:41:25;97928.88;;;13.12;48.91
17635;BME280;8936;49.010;12.120;2023-04-26T09:43:55;97933.06;;;13.23;50.12
17635;BME280;8936;49.010;12.120;2023-04-26T09:46:21;97933.19;;;13.03;48.81
17635;BME280;8936;49.010;12.120;2023-04-26T09:48:51;97923.69;;;13.20;50.29
17635;BME280;8936;49.010;12.120;2023-04-26T09:51:25;97932.00;;;13.24;50.16
17635;BME280;8936;49.010;12.120;2023-04-26T09:53:53;97931.75;;;13.15;49.24
17635;BME280;8936;49.010;12.120;2023-04-26T09:56:21;97941.03;;;13.67;49.29
17635;BME280;8936;49.010;12.120;2023-04-26T09:58:56;97934.31;;;13.98;49.07
17635;BME280;8936;49.010;12.120;2023-04-26T10:01:23;97935.13;;;14.22;50.25
17635;BME280;8936;49.010;12.120;2023-04-26T10:03:50;97941.03;;;13.67;47.51
17635;BME280;8936;49.010;12.120;2023-04-26T10:06:17;97936.38;;;13.48;45.96
17635;BME280;8936;49.010;12.120;2023-04-26T10:08:43;97943.41;;;13.68;49.39
17635;BME280;8936;49.010;12.120;2023-04-26T10:11:10;97926.69;;;13.47;45.80
17635;BME280;8936;49.010;12.120;2023-04-26T10:13:39;97933.63;;;13.53;48.76
17635;BME280;8936;49.010;12.120;2023-04-26T10:16:07;97938.97;;;13.87;48.48
17635;BME280;8936;49.010;12.120;2023-04-26T10:18:34;97932.19;;;13.66;47.98
17635;BME280;8936;49.010;12.120;2023-04-26T10:21:01;97931.63;;;13.69;48.44
17635;BME280;8936;49.010;12.120;2023-04-26T10:23:30;97918.47;;;13.96;48.81
17635;BME280;8936;49.010;12.120;2023-04-26T10:25:57;97925.63;;;14.06;47.05
17635;BME280;8936;49.010;12.120;2023-04-26T10:31:09;97919.91;;;14.13;48.12
17635;BME280;8936;49.010;12.120;2023-04-26T10:33:35;97908.25;;;13.70;44.59
17635;BME280;8936;49.010;12.120;2023-04-26T10:36:06;97909.88;;;13.37;46.42
17635;BME280;8936;49.010;12.120;2023-04-26T10:38:33;97913.03;;;13.44;48.24
17635;BME280;8936;49.010;12.120;2023-04-26T10:43:45;97922.75;;;13.40;47.72
17635;BME280;8936;49.010;12.120;2023-04-26T10:48:58;97917.34;;;13.45;46.17
17635;BME280;8936;49.010;12.120;2023-04-26T10:51:24;97912.03;;;13.69;48.37
17635;BME280;8936;49.010;12.120;2023-04-26T10:53:57;97902.19;;;14.12;48.20
17635;BME280;8936;49.010;12.120;2023-04-26T10:59:14;97901.94;;;14.08;45.56
17635;BME280;8936;49.010;12.120;2023-04-26T11:01:44;97904.75;;;14.22;46.92
17635;BME280;8936;49.010;12.120;2023-04-26T11:04:12;97903.50;;;13.90;47.03
17635;BME280;8936;49.010;12.120;2023-04-26T11:06:48;97898.81;;;14.01;45.81
17635;BME280;8936;49.010;12.120;2023-04-26T11:09:34;97895.22;;;13.58;45.14
17635;BME280;8936;49.010;12.120;2023-04-26T11:12:02;97894.56;;;13.42;45.45
17635;BME280;8936;49.010;12.120;2023-04-26T11:14:29;97893.03;;;13.31;45.39
17635;BME280;8936;49.010;12.120;2023-04-26T11:16:55;97892.31;;;13.21;44.69
17635;BME280;8936;49.010;12.120;2023-04-26T11:19:23;97887.78;;;12.72;44.70
17635;BME280;8936;49.010;12.120;2023-04-26T11:21:51;97896.69;;;13.12;47.10
17635;BME280;8936;49.010;12.120;2023-04-26T11:24:23;97893.78;;;13.37;46.73
17635;BME280;8936;49.010;12.120;2023-04-26T11:26:50;97889.84;;;13.29;44.71
17635;BME280;8936;49.010;12.120;2023-04-26T11:29:17;97884.84;;;13.18;45.24
17635;BME280;8936;49.010;12.120;2023-04-26T11:31:49;97894.28;;;13.44;47.02
17635;BME280;8936;49.010;12.120;2023-04-26T11:34:15;97884.81;;;13.51;44.94
17635;BME280;8936;49.010;12.120;2023-04-26T11:36:44;97889.00;;;13.91;46.83
17635;BME280;8936;49.010;12.120;2023-04-26T11:39:11;97889.88;;;14.11;46.36
17635;BME280;8936;49.010;12.120;2023-04-26T11:41:38;97885.41;;;14.01;44.26
17635;BME280;8936;49.010;12.120;2023-04-26T11:44:04;97885.56;;;14.10;46.48
17635;BME280;8936;49.010;12.120;2023-04-26T11:46:31;97880.47;;;14.32;45.91
17635;BME280;8936;49.010;12.120;2023-04-26T11:48:57;97872.69;;;14.35;45.40
17635;BME280;8936;49.010;12.120;2023-04-26T11:51:24;97871.00;;;14.39;45.44
17635;BME280;8936;49.010;12.120;2023-04-26T11:53:52;97869.91;;;14.40;46.11
17635;BME280;8936;49.010;12.120;2023-04-26T11:56:19;97881.13;;;14.47;46.63
17635;BME280;8936;49.010;12.120;2023-04-26T11:58:47;97872.06;;;14.15;45.99
17635;BME280;8936;49.010;12.120;2023-04-26T12:01:20;97870.72;;;14.17;46.93
17635;BME280;8936;49.010;12.120;2023-04-26T12:03:48;97890.88;;;14.15;46.52
17635;BME280;8936;49.010;12.120;2023-04-26T12:06:15;97879.63;;;14.13;44.69
17635;BME280;8936;49.010;12.120;2023-04-26T12:08:47;97877.63;;;13.99;46.43
17635;BME280;8936;49.010;12.120;2023-04-26T12:11:16;97875.16;;;14.27;46.13
17635;BME280;8936;49.010;12.120;2023-04-26T12:13:44;97884.50;;;14.11;46.45
17635;BME280;8936;49.010;12.120;2023-04-26T12:16:11;97879.34;;;14.38;49.33
17635;BME280;8936;49.010;12.120;2023-04-26T12:18:37;97879.75;;;14.50;49.14
17635;BME280;8936;49.010;12.120;2023-04-26T12:21:04;97876.97;;;14.55;47.55
17635;BME280;8936;49.010;12.120;2023-04-26T12:23:35;97877.06;;;14.69;46.78
17635;BME280;8936;49.010;12.120;2023-04-26T12:26:03;97878.00;;;14.59;45.34
17635;BME280;8936;49.010;12.120;2023-04-26T12:28:31;97872.91;;;14.39;45.67
17635;BME280;8936;49.010;12.120;2023-04-26T12:30:58;97870.25;;;14.34;46.23
17635;BME280;8936;49.010;12.120;2023-04-26T12:33:25;97877.91;;;14.45;46.34
17635;BME280;8936;49.010;12.120;2023-04-26T12:35:52;97861.00;;;14.45;47.09
17635;BME280;8936;49.010;12.120;2023-04-26T12:38:18;97866.50;;;14.35;46.07
17635;BME280;8936;49.010;12.120;2023-04-26T12:40:45;97860.94;;;14.26;45.82
17635;BME280;8936;49.010;12.120;2023-04-26T12:43:11;97864.66;;;14.06;46.38
17635;BME280;8936;49.010;12.120;2023-04-26T12:45:39;97860.41;;;14.24;46.52
17635;BME280;8936;49.010;12.120;2023-04-26T12:48:05;97864.53;;;14.40;47.38
17635;BME280;8936;49.010;12.120;2023-04-26T12:50:32;97861.38;;;14.57;47.24
17635;BME280;8936;49.010;12.120;2023-04-26T12:52:58;97860.00;;;14.59;48.00
17635;BME280;8936;49.010;12.120;2023-04-26T12:55:25;97862.56;;;14.70;45.07
17635;BME280;8936;49.010;12.120;2023-04-26T12:57:51;97850.03;;;14.41;44.83
17635;BME280;8936;49.010;12.120;2023-04-26T13:00:18;97849.28;;;14.54;46.56
17635;BME280;8936;49.010;12.120;2023-04-26T13:02:47;97848.75;;;14.57;45.77
17635;BME280;8936;49.010;12.120;2023-04-26T13:05:13;97851.63;;;14.80;45.69
17635;BME280;8936;49.010;12.120;2023-04-26T13:07:41;97840.25;;;14.69;45.17
17635;BME280;8936;49.010;12.120;2023-04-26T13:10:08;97845.28;;;14.33;43.24